createdAt,value
2023-10-11T00:02:41.892Z,13.73
2023-10-11T00:05:56.388Z,13.78
2023-10-11T00:08:59.166Z,13.83
2023-10-11T00:12:13.376Z,13.85
2023-10-11T00:15:16.298Z,13.83
2023-10-11T00:18:29.122Z,13.71
2023-10-11T00:21:44.288Z,13.79
2023-10-11T00:24:47.036Z,13.72
2023-10-11T00:27:49.701Z,13.71
2023-10-11T00:30:53.905Z,13.72
2023-10-11T00:33:56.714Z,13.80
2023-10-11T00:37:00.058Z,13.86
2023-10-11T00:40:03.998Z,13.85
2023-10-11T00:43:08.249Z,13.89
2023-10-11T00:46:11.217Z,13.88
2023-10-11T00:49:14.155Z,13.93
2023-10-11T00:52:16.897Z,13.97
2023-10-11T00:55:21.760Z,13.99
2023-10-11T00:58:25.079Z,14.04
2023-10-11T01:01:28.079Z,14.10
2023-10-11T01:04:40.785Z,14.14
2023-10-11T01:07:46.134Z,14.10
2023-10-11T01:10:49.294Z,14.08
2023-10-11T01:13:55.046Z,14.00
2023-10-11T01:16:59.738Z,13.98
2023-10-11T01:20:03.323Z,13.94
2023-10-11T01:23:06.268Z,13.96
2023-10-11T01:26:09.665Z,13.92
2023-10-11T01:29:12.446Z,13.87
2023-10-11T01:32:15.167Z,13.96
2023-10-11T01:35:21.321Z,13.90
2023-10-11T01:38:25.650Z,13.87
2023-10-11T01:41:28.653Z,13.93
2023-10-11T01:44:33.230Z,13.98
2023-10-11T01:47:36.582Z,13.94
2023-10-11T01:50:39.339Z,13.88
2023-10-11T01:53:42.521Z,13.92
2023-10-11T01:56:46.705Z,13.98
2023-10-11T01:59:49.453Z,13.99
2023-10-11T02:02:58.325Z,14.04
2023-10-11T02:06:06.091Z,14.06
2023-10-11T02:09:10.833Z,14.11
2023-10-11T02:12:13.640Z,14.12
2023-10-11T02:15:31.380Z,14.08
2023-10-11T02:18:34.537Z,14.13
2023-10-11T02:21:38.532Z,14.14
2023-10-11T02:24:41.445Z,14.18
2023-10-11T02:27:44.658Z,14.21
2023-10-11T02:30:47.333Z,14.22
2023-10-11T02:33:53.421Z,14.12
2023-10-11T02:37:12.247Z,14.19
2023-10-11T02:40:18.088Z,14.21
2023-10-11T02:43:22.022Z,14.20
2023-10-11T02:46:25.480Z,14.07
2023-10-11T02:49:33.631Z,14.13
2023-10-11T02:52:40.875Z,14.11
2023-10-11T02:55:43.380Z,13.93
2023-10-11T02:58:46.567Z,14.01
2023-10-11T03:02:01.004Z,13.96
2023-10-11T03:05:09.352Z,13.97
2023-10-11T03:08:15.102Z,13.95
2023-10-11T03:11:19.266Z,13.82
2023-10-11T03:14:22.004Z,13.80
2023-10-11T03:17:24.954Z,13.82
2023-10-11T03:20:28.357Z,13.87
2023-10-11T03:23:31.058Z,13.87
2023-10-11T03:26:34.550Z,13.91
2023-10-11T03:29:37.241Z,13.95
2023-10-11T03:32:40.139Z,13.96
2023-10-11T03:35:45.306Z,13.93
2023-10-11T03:38:53.338Z,13.97
2023-10-11T03:42:16.887Z,13.96
2023-10-11T03:45:22.356Z,13.96
2023-10-11T03:48:30.012Z,13.88
2023-10-11T03:51:33.741Z,13.86
2023-10-11T03:54:38.250Z,13.81
2023-10-11T03:57:44.943Z,13.72
2023-10-11T04:00:47.916Z,13.75
2023-10-11T04:03:51.191Z,13.68
2023-10-11T04:06:59.441Z,13.46
2023-10-11T04:10:10.876Z,13.43
2023-10-11T04:13:16.732Z,13.41
2023-10-11T04:16:19.563Z,13.34
2023-10-11T04:19:23.035Z,13.33
2023-10-11T04:22:25.809Z,13.37
2023-10-11T04:25:34.162Z,13.30
2023-10-11T04:28:43.163Z,13.33
2023-10-11T04:32:15.885Z,13.40
2023-10-11T04:35:26.549Z,13.50
2023-10-11T04:38:34.456Z,13.54
2023-10-11T04:41:39.315Z,13.56
2023-10-11T04:44:48.737Z,13.54
2023-10-11T04:47:52.753Z,13.62
2023-10-11T04:51:23.894Z,13.60
2023-10-11T04:54:43.756Z,13.54
2023-10-11T04:58:05.766Z,13.33
2023-10-11T05:01:13.403Z,13.29
2023-10-11T05:04:17.223Z,13.31
2023-10-11T05:07:23.529Z,13.40
2023-10-11T05:10:29.117Z,13.39
2023-10-11T05:13:37.982Z,13.44
2023-10-11T05:16:46.434Z,13.48
2023-10-11T05:20:06.830Z,13.58
2023-10-11T05:23:13.329Z,13.48
2023-10-11T05:26:38.551Z,13.43
2023-10-11T05:30:02.003Z,13.43
2023-10-11T05:33:05.227Z,13.40
2023-10-11T05:36:34.283Z,13.48
2023-10-11T05:39:56.027Z,13.48
2023-10-11T05:43:17.665Z,13.51
2023-10-11T05:46:39.948Z,13.58
2023-10-11T05:50:02.664Z,13.43
2023-10-11T05:53:05.380Z,13.49
2023-10-11T05:56:10.295Z,13.38
2023-10-11T05:59:15.811Z,13.48
2023-10-11T06:02:23.808Z,13.54
2023-10-11T06:05:26.594Z,13.53
2023-10-11T06:08:32.813Z,13.52
2023-10-11T06:11:38.463Z,13.46
2023-10-11T06:14:41.187Z,13.50
2023-10-11T06:17:44.042Z,13.62
2023-10-11T06:21:02.959Z,13.64
2023-10-11T06:24:05.957Z,13.77
2023-10-11T06:27:27.029Z,13.74
2023-10-11T06:30:29.852Z,13.66
2023-10-11T06:33:35.930Z,13.62
2023-10-11T06:36:38.794Z,13.62
2023-10-11T06:39:44.559Z,13.68
2023-10-11T06:42:47.288Z,13.70
2023-10-11T06:45:51.200Z,13.82
2023-10-11T06:48:56.654Z,13.63
2023-10-11T06:51:59.370Z,13.75
2023-10-11T06:55:22.391Z,13.78
2023-10-11T06:58:25.104Z,13.66
2023-10-11T07:01:32.269Z,13.75
2023-10-11T07:04:38.364Z,13.80
2023-10-11T07:07:52.785Z,13.87
2023-10-11T07:11:08.842Z,13.93
2023-10-11T07:14:17.651Z,13.94
2023-10-11T07:17:28.629Z,13.91
2023-10-11T07:20:57.874Z,13.95
2023-10-11T07:24:27.631Z,13.96
2023-10-11T07:27:54.552Z,14.11
2023-10-11T07:30:58.236Z,14.15
2023-10-11T07:34:08.510Z,14.12
2023-10-11T07:37:21.564Z,14.23
2023-10-11T07:40:45.874Z,14.20
2023-10-11T07:43:58.196Z,14.16
2023-10-11T07:47:27.445Z,14.15
2023-10-11T07:50:39.961Z,14.25
2023-10-11T07:53:49.388Z,14.42
2023-10-11T07:57:02.616Z,14.25
2023-10-11T08:00:32.247Z,14.43
2023-10-11T08:03:45.782Z,14.32
2023-10-11T08:10:52.854Z,14.49
2023-10-11T08:14:05.295Z,14.61
2023-10-11T08:17:17.787Z,14.66
2023-10-11T08:20:30.576Z,14.59
2023-10-11T08:23:56.916Z,14.61
2023-10-11T08:27:13.067Z,14.63
2023-10-11T08:30:25.392Z,14.65
2023-10-11T08:33:37.448Z,14.85
2023-10-11T08:36:46.537Z,14.83
2023-10-11T08:40:01.453Z,14.81
2023-10-11T08:43:11.170Z,14.87
2023-10-11T08:46:20.451Z,14.79
2023-10-11T08:52:44.624Z,14.99
2023-10-11T08:55:58.519Z,15.00
2023-10-11T08:59:28.110Z,15.19
2023-10-11T09:02:57.616Z,15.25
2023-10-11T09:06:06.044Z,15.22
2023-10-11T09:09:35.729Z,15.26
2023-10-11T09:12:47.839Z,15.31
2023-10-11T09:15:59.463Z,15.53
2023-10-11T09:19:13.056Z,15.42
2023-10-11T09:22:24.570Z,15.57
2023-10-11T09:25:35.233Z,15.58
2023-10-11T09:28:42.796Z,15.77
2023-10-11T09:32:06.581Z,16.06
2023-10-11T09:35:29.665Z,16.24
2023-10-11T09:38:40.609Z,16.20
2023-10-11T09:41:45.844Z,16.33
2023-10-11T09:44:48.577Z,15.97
2023-10-11T09:47:57.183Z,16.10
2023-10-11T09:51:00.764Z,15.97
2023-10-11T09:54:08.728Z,16.02
2023-10-11T09:57:26.696Z,16.03
2023-10-11T10:01:07.950Z,15.94
2023-10-11T10:04:13.660Z,15.88
2023-10-11T10:07:25.170Z,15.96
2023-10-11T10:10:54.293Z,15.91
2023-10-11T10:14:25.985Z,15.95
2023-10-11T10:17:30.136Z,16.01
2023-10-11T10:20:36.168Z,16.43
2023-10-11T10:23:44.070Z,17.02
2023-10-11T10:26:47.116Z,17.24
2023-10-11T10:30:01.715Z,17.35
2023-10-11T10:33:22.714Z,17.76
2023-10-11T10:36:30.839Z,18.00
2023-10-11T10:40:00.170Z,18.03
2023-10-11T10:43:16.302Z,18.02
2023-10-11T10:46:19.524Z,18.09
2023-10-11T10:49:25.010Z,18.03
2023-10-11T10:52:32.165Z,18.30
2023-10-11T10:55:36.348Z,18.32
2023-10-11T10:58:41.168Z,18.15
2023-10-11T11:01:48.013Z,18.55
2023-10-11T11:04:51.417Z,18.31
2023-10-11T11:07:54.288Z,18.90
2023-10-11T11:11:24.500Z,19.16
2023-10-11T11:14:27.281Z,19.30
2023-10-11T11:17:47.991Z,20.03
2023-10-11T11:20:53.245Z,20.00
2023-10-11T11:23:56.030Z,20.14
2023-10-11T11:26:59.390Z,19.88
2023-10-11T11:30:35.519Z,19.76
2023-10-11T11:33:49.658Z,19.83
2023-10-11T11:37:14.109Z,19.85
2023-10-11T11:40:26.271Z,20.12
2023-10-11T11:43:35.644Z,19.95
2023-10-11T11:46:38.393Z,20.28
2023-10-11T11:49:41.144Z,20.60
2023-10-11T11:52:46.396Z,20.40
2023-10-11T11:55:49.619Z,20.94
2023-10-11T11:58:55.938Z,20.79
2023-10-11T12:02:01.311Z,20.47
2023-10-11T12:05:06.144Z,20.78
2023-10-11T12:08:13.592Z,20.60
2023-10-11T12:11:16.975Z,20.25
2023-10-11T12:14:24.375Z,20.19
2023-10-11T12:17:27.338Z,20.37
2023-10-11T12:20:35.634Z,20.72
2023-10-11T12:23:45.627Z,21.19
2023-10-11T12:26:49.120Z,21.35
2023-10-11T12:30:04.983Z,21.15
2023-10-11T12:33:08.601Z,20.64
2023-10-11T12:36:12.404Z,20.90
2023-10-11T12:39:26.328Z,20.81
2023-10-11T12:42:29.407Z,20.64
2023-10-11T12:45:32.226Z,21.08
2023-10-11T12:48:35.514Z,21.35
2023-10-11T12:51:38.351Z,21.70
2023-10-11T12:54:43.364Z,21.85
2023-10-11T12:57:46.192Z,21.74
2023-10-11T13:01:00.337Z,21.78
2023-10-11T13:04:19.850Z,21.53
2023-10-11T13:07:22.836Z,21.25
2023-10-11T13:10:25.692Z,21.37
2023-10-11T13:13:31.603Z,21.30
2023-10-11T13:16:35.666Z,20.99
2023-10-11T13:19:38.451Z,20.85
2023-10-11T13:22:41.705Z,21.21
2023-10-11T13:25:46.089Z,21.45
2023-10-11T13:28:55.138Z,21.47
2023-10-11T13:31:59.192Z,21.32
2023-10-11T13:35:02.070Z,21.38
2023-10-11T13:38:13.330Z,21.40
2023-10-11T13:41:17.847Z,21.39
2023-10-11T13:44:27.164Z,21.23
2023-10-11T13:47:34.683Z,21.18
2023-10-11T13:50:39.155Z,21.32
2023-10-11T13:53:44.972Z,21.41
2023-10-11T13:56:47.771Z,21.48
2023-10-11T13:59:52.444Z,21.49
2023-10-11T14:03:15.381Z,21.57
2023-10-11T14:06:24.099Z,21.44
2023-10-11T14:09:31.838Z,21.22
2023-10-11T14:12:36.537Z,21.26
2023-10-11T14:15:39.837Z,21.31
2023-10-11T14:18:42.799Z,21.19
2023-10-11T14:21:49.304Z,21.17
2023-10-11T14:24:53.435Z,21.09
2023-10-11T14:27:56.291Z,21.04
2023-10-11T14:31:01.437Z,20.95
2023-10-11T14:34:05.975Z,20.72
2023-10-11T14:37:13.597Z,20.70
2023-10-11T14:40:17.460Z,20.74
2023-10-11T14:43:20.348Z,20.59
2023-10-11T14:46:24.453Z,20.65
2023-10-11T14:49:30.057Z,20.57
2023-10-11T14:52:32.885Z,20.49
2023-10-11T14:55:36.605Z,20.55
2023-10-11T14:58:39.641Z,20.67
2023-10-11T15:01:42.631Z,20.98
2023-10-11T15:04:45.657Z,21.08
2023-10-11T15:07:53.346Z,21.15
2023-10-11T15:10:56.384Z,21.21
2023-10-11T15:14:01.154Z,21.20
2023-10-11T15:17:04.268Z,21.00
2023-10-11T15:20:10.830Z,20.78
2023-10-11T15:23:13.434Z,20.33
2023-10-11T15:26:21.204Z,20.39
2023-10-11T15:29:24.487Z,20.36
2023-10-11T15:32:27.344Z,20.39
2023-10-11T15:35:30.138Z,20.34
2023-10-11T15:38:34.180Z,20.26
2023-10-11T15:41:38.368Z,20.13
2023-10-11T15:44:41.100Z,19.99
2023-10-11T15:47:48.492Z,19.78
2023-10-11T15:51:10.826Z,19.56
2023-10-11T15:54:13.634Z,19.37
2023-10-11T15:57:16.399Z,19.31
2023-10-11T16:00:21.727Z,19.30
2023-10-11T16:03:25.733Z,19.14
2023-10-11T16:06:28.608Z,18.95
2023-10-11T16:09:32.788Z,18.75
2023-10-11T16:12:35.447Z,18.59
2023-10-11T16:15:38.261Z,18.44
2023-10-11T16:18:42.637Z,18.43
2023-10-11T16:21:45.474Z,18.32
2023-10-11T16:24:48.324Z,18.23
2023-10-11T16:27:51.839Z,18.11
2023-10-11T16:30:57.256Z,18.04
2023-10-11T16:34:00.130Z,17.98
2023-10-11T16:37:06.622Z,17.87
2023-10-11T16:40:17.532Z,17.74
2023-10-11T16:43:23.751Z,17.65
2023-10-11T16:49:32.423Z,17.47
2023-10-11T16:52:35.097Z,17.43
2023-10-11T16:55:37.872Z,17.40
2023-10-11T16:58:42.008Z,17.33
2023-10-11T17:01:46.383Z,17.29
2023-10-11T17:04:50.734Z,17.33
2023-10-11T17:07:53.952Z,17.30
2023-10-11T17:10:59.125Z,17.15
2023-10-11T17:14:01.895Z,17.09
2023-10-11T17:17:05.486Z,17.00
2023-10-11T17:20:18.743Z,16.93
2023-10-11T17:23:21.520Z,16.85
2023-10-11T17:26:25.844Z,16.80
2023-10-11T17:29:29.213Z,16.69
2023-10-11T17:32:32.695Z,16.70
2023-10-11T17:35:38.137Z,16.63
2023-10-11T17:38:41.044Z,16.58
2023-10-11T17:41:44.564Z,16.52
2023-10-11T17:44:47.882Z,16.46
2023-10-11T17:47:53.945Z,16.31
2023-10-11T17:50:57.604Z,16.32
2023-10-11T17:54:03.998Z,16.44
2023-10-11T17:57:07.672Z,16.30
2023-10-11T18:00:18.553Z,16.22
2023-10-11T18:03:21.579Z,16.13
2023-10-11T18:06:24.820Z,16.10
2023-10-11T18:09:28.378Z,16.06
2023-10-11T18:12:32.733Z,16.00
2023-10-11T18:15:35.684Z,15.95
2023-10-11T18:18:38.737Z,15.93
2023-10-11T18:21:48.201Z,15.88
2023-10-11T18:24:51.755Z,15.98
2023-10-11T18:27:58.550Z,15.89
2023-10-11T18:31:08.003Z,15.66
2023-10-11T18:34:10.706Z,15.79
2023-10-11T18:37:13.707Z,15.88
2023-10-11T18:40:22.126Z,15.73
2023-10-11T18:43:29.291Z,15.85
2023-10-11T18:46:32.829Z,15.72
2023-10-11T18:49:35.856Z,15.67
2023-10-11T18:52:39.004Z,15.54
2023-10-11T18:55:44.621Z,15.49
2023-10-11T18:58:48.895Z,15.48
2023-10-11T19:01:51.884Z,15.37
2023-10-11T19:04:58.334Z,15.32
2023-10-11T19:08:01.635Z,15.33
2023-10-11T19:11:11.794Z,15.29
2023-10-11T19:14:15.364Z,15.26
2023-10-11T19:17:18.829Z,15.23
2023-10-11T19:20:27.117Z,15.26
2023-10-11T19:23:40.281Z,15.13
2023-10-11T19:26:45.717Z,15.06
2023-10-11T19:29:48.527Z,14.93
2023-10-11T19:32:52.550Z,14.96
2023-10-11T19:36:08.902Z,14.93
2023-10-11T19:39:14.554Z,14.91
2023-10-11T19:42:17.885Z,14.83
2023-10-11T19:45:24.772Z,14.88
2023-10-11T19:48:28.324Z,14.81
2023-10-11T19:51:31.697Z,14.82
2023-10-11T19:54:34.819Z,14.82
2023-10-11T19:57:41.089Z,14.75
2023-10-11T20:00:44.364Z,14.64
2023-10-11T20:03:53.769Z,14.65
2023-10-11T20:06:57.383Z,14.64
2023-10-11T20:10:00.609Z,14.63
2023-10-11T20:13:04.189Z,14.57
2023-10-11T20:16:12.978Z,14.59
2023-10-11T20:19:18.880Z,14.51
2023-10-11T20:22:21.576Z,14.52
2023-10-11T20:25:24.910Z,14.48
2023-10-11T20:28:27.739Z,14.45
2023-10-11T20:31:30.562Z,14.52
2023-10-11T20:34:33.374Z,14.49
2023-10-11T20:37:36.628Z,14.48
2023-10-11T20:40:42.420Z,14.48
2023-10-11T20:43:45.332Z,14.37
2023-10-11T20:46:52.325Z,14.39
2023-10-11T20:49:57.133Z,14.37
2023-10-11T20:53:04.282Z,14.36
2023-10-11T20:56:08.279Z,14.36
2023-10-11T20:59:16.952Z,14.31
2023-10-11T21:02:19.636Z,14.37
2023-10-11T21:05:25.654Z,14.36
2023-10-11T21:08:29.112Z,14.22
2023-10-11T21:11:40.555Z,14.17
2023-10-11T21:14:50.286Z,14.13
2023-10-11T21:18:19.650Z,14.10
2023-10-11T21:21:33.971Z,14.03
2023-10-11T21:25:04.587Z,13.98
2023-10-11T21:28:32.765Z,14.02
2023-10-11T21:31:44.074Z,14.06
2023-10-11T21:35:14.777Z,14.00
2023-10-11T21:38:54.250Z,13.96
2023-10-11T21:42:08.672Z,13.90
2023-10-11T21:45:20.492Z,13.84
2023-10-11T21:48:24.474Z,13.74
2023-10-11T21:51:27.323Z,13.63
2023-10-11T21:54:30.144Z,13.62
2023-10-11T21:57:32.914Z,13.55
2023-10-11T22:00:48.782Z,13.45
2023-10-11T22:03:52.279Z,13.51
2023-10-11T22:06:55.148Z,13.46
2023-10-11T22:09:57.918Z,13.49
2023-10-11T22:13:00.588Z,13.46
2023-10-11T22:16:03.857Z,13.43
2023-10-11T22:19:06.489Z,13.36
2023-10-11T22:22:11.819Z,13.40
2023-10-11T22:25:15.805Z,13.34
2023-10-11T22:28:18.901Z,13.32
2023-10-11T22:31:21.815Z,13.25
2023-10-11T22:34:24.713Z,13.25
2023-10-11T22:37:31.493Z,13.21
2023-10-11T22:40:34.444Z,13.05
2023-10-11T22:43:38.013Z,13.18
2023-10-11T22:46:40.743Z,13.24
2023-10-11T22:49:43.400Z,13.24
2023-10-11T22:52:52.153Z,13.19
2023-10-11T22:55:54.900Z,13.18
2023-10-11T22:58:57.700Z,13.13
2023-10-11T23:02:04.885Z,13.05
2023-10-11T23:05:07.911Z,12.97
2023-10-11T23:08:10.654Z,12.93
2023-10-11T23:11:22.433Z,12.98
2023-10-11T23:14:25.659Z,12.97
2023-10-11T23:17:31.261Z,12.89
2023-10-11T23:20:40.410Z,12.87
2023-10-11T23:23:43.433Z,12.99
2023-10-11T23:26:54.458Z,13.05
2023-10-11T23:30:00.755Z,12.97
2023-10-11T23:33:09.514Z,12.95
2023-10-11T23:36:12.319Z,13.01
2023-10-11T23:39:15.125Z,13.00
2023-10-11T23:42:21.506Z,12.99
2023-10-11T23:45:24.717Z,12.95
2023-10-11T23:48:34.920Z,12.89
2023-10-11T23:51:43.329Z,12.89
2023-10-11T23:54:50.674Z,12.86
2023-10-11T23:57:56.643Z,12.88
